Bilbao, Spain
Current Conditions -  °F | °C
As of 11:30 PM on Monday 20 Oct 2014 (Local Time) from LEBB Reporting Station
Few Clouds Few Clouds  
Wind Chill: 63°   Ceiling: Unl
Heat Index: 63°   Visibility: 4mi
Dew Point: 63°   Wind: 2mph
Humidity: 100%   Direction: NA
Pressure: 30.18"   Gusts: NA
Location:  43.26°N, 2.92°W
Report Text: LEBB 202130Z VRB02KT 7000 FEW040 17/17 Q1022 NOSIG
Loading
Personal Weather Stations






























Interactive Weather Map New forecast layout! Learn more

10-Day Weather Forecast

Advertisements
Track Severe Weather on mobile